createdAt,value
2019-06-07T00:00:40.120Z,100367.94
2019-06-07T00:03:10.722Z,100372.86
2019-06-07T00:05:39.295Z,100377.16
2019-06-07T00:08:17.080Z,100375.81
2019-06-07T00:10:42.759Z,100371.31
2019-06-07T00:13:17.102Z,100380.47
2019-06-07T00:15:46.193Z,100379.55
2019-06-07T00:18:20.970Z,100373.95
2019-06-07T00:20:49.924Z,100363.41
2019-06-07T00:23:22.839Z,100345.15
2019-06-07T00:25:53.382Z,100340.45
2019-06-07T00:28:24.103Z,100334.00
2019-06-07T00:30:55.057Z,100328.69
2019-06-07T00:33:25.760Z,100325.99
2019-06-07T00:35:56.426Z,100339.48
2019-06-07T00:38:27.410Z,100352.59
2019-06-07T00:40:58.350Z,100365.52
2019-06-07T00:43:29.344Z,100363.25
2019-06-07T00:46:00.317Z,100372.14
2019-06-07T00:48:32.888Z,100370.44
2019-06-07T00:51:03.659Z,100366.47
2019-06-07T00:53:34.632Z,100363.09
2019-06-07T00:56:05.699Z,100369.37
2019-06-07T00:58:36.678Z,100375.83
2019-06-07T01:01:07.685Z,100368.56
2019-06-07T01:03:38.655Z,100358.47
2019-06-07T01:06:09.627Z,100354.48
2019-06-07T01:08:40.312Z,100350.66
2019-06-07T01:11:11.293Z,100343.43
2019-06-07T01:13:42.269Z,100345.95
2019-06-07T01:16:13.738Z,100349.88
2019-06-07T01:18:46.769Z,100341.72
2019-06-07T01:21:20.613Z,100354.83
2019-06-07T01:24:11.925Z,100366.22
2019-06-07T01:26:26.355Z,100356.41
2019-06-07T01:28:55.323Z,100359.17
2019-06-07T01:31:28.493Z,100357.93
2019-06-07T01:33:58.395Z,100350.42
2019-06-07T01:36:31.013Z,100343.09
2019-06-07T01:39:02.163Z,100351.55
2019-06-07T01:41:34.446Z,100355.34
2019-06-07T01:44:05.672Z,100344.66
2019-06-07T01:46:36.760Z,100337.95
2019-06-07T01:49:07.426Z,100336.02
2019-06-07T01:51:38.502Z,100332.97
2019-06-07T01:56:41.888Z,100352.75
2019-06-07T01:59:12.888Z,100362.61
2019-06-07T02:01:43.570Z,100362.26
2019-06-07T02:04:14.245Z,100358.55
2019-06-07T02:06:44.974Z,100342.31
2019-06-07T02:09:15.710Z,100333.59
2019-06-07T02:11:46.398Z,100332.46
2019-06-07T02:14:17.503Z,100347.75
2019-06-07T02:16:48.488Z,100340.52
2019-06-07T02:19:19.502Z,100345.36
2019-06-07T02:21:50.347Z,100351.95
2019-06-07T02:24:24.766Z,100349.22
2019-06-07T02:26:53.786Z,100355.27
2019-06-07T02:29:25.458Z,100359.66
2019-06-07T02:31:56.852Z,100360.52
2019-06-07T02:34:34.805Z,100362.13
2019-06-07T02:37:00.204Z,100367.81
2019-06-07T02:39:37.543Z,100368.84
2019-06-07T02:42:03.819Z,100363.16
2019-06-07T02:44:39.191Z,100374.46
2019-06-07T02:47:07.837Z,100374.16
2019-06-07T02:49:41.344Z,100375.19
2019-06-07T02:52:11.240Z,100379.45
2019-06-07T02:54:41.981Z,100382.92
2019-06-07T02:57:13.023Z,100388.30
2019-06-07T03:00:05.021Z,100377.67
2019-06-07T03:02:16.863Z,100370.00
2019-06-07T03:04:48.054Z,100372.69
2019-06-07T03:07:20.334Z,100378.59
2019-06-07T03:09:52.114Z,100375.91
2019-06-07T03:12:24.330Z,100373.34
2019-06-07T03:14:56.354Z,100373.08
2019-06-07T03:17:37.867Z,100372.45
2019-06-07T03:20:10.541Z,100370.33
2019-06-07T03:22:43.442Z,100378.66
2019-06-07T03:25:14.268Z,100374.96
2019-06-07T03:27:49.856Z,100380.59
2019-06-07T03:32:52.080Z,100391.41
2019-06-07T03:35:23.232Z,100394.15
2019-06-07T03:37:53.960Z,100394.20
2019-06-07T03:40:25.105Z,100390.23
2019-06-07T03:42:56.094Z,100393.94
2019-06-07T03:45:28.619Z,100380.80
2019-06-07T03:47:59.850Z,100379.72
2019-06-07T03:50:32.324Z,100387.72
2019-06-07T03:53:03.240Z,100393.91
2019-06-07T03:55:37.737Z,100385.86
2019-06-07T04:00:42.989Z,100392.05
2019-06-07T04:03:32.380Z,100400.58
2019-06-07T04:05:44.626Z,100403.58
2019-06-07T04:08:15.291Z,100410.48
2019-06-07T04:10:59.234Z,100407.27
2019-06-07T04:13:18.362Z,100403.30
2019-06-07T04:15:49.156Z,100408.22
2019-06-07T04:18:19.895Z,100407.20
2019-06-07T04:20:50.974Z,100405.82
2019-06-07T04:23:28.308Z,100410.64
2019-06-07T04:25:54.345Z,100406.43
2019-06-07T04:29:19.185Z,100405.50
2019-06-07T04:30:57.607Z,100412.97
2019-06-07T04:33:28.764Z,100410.41
2019-06-07T04:36:01.869Z,100412.91
2019-06-07T04:38:36.986Z,100407.92
2019-06-07T04:41:09.011Z,100410.50
2019-06-07T04:43:42.846Z,100409.39
2019-06-07T04:46:13.960Z,100409.54
2019-06-07T04:48:47.631Z,100406.97
2019-06-07T04:51:20.095Z,100398.62
2019-06-07T04:53:51.171Z,100398.62
2019-06-07T04:56:22.191Z,100401.20
2019-06-07T04:58:53.857Z,100403.81
2019-06-07T05:01:27.744Z,100402.45
2019-06-07T05:03:57.498Z,100404.70
2019-06-07T05:06:29.933Z,100407.00
2019-06-07T05:09:00.954Z,100411.42
2019-06-07T05:11:33.975Z,100401.05
2019-06-07T05:14:04.930Z,100401.09
2019-06-07T05:16:43.311Z,100400.00
2019-06-07T05:19:11.694Z,100404.14
2019-06-07T05:22:01.403Z,100401.81
2019-06-07T05:24:16.320Z,100402.00
2019-06-07T05:26:47.047Z,100401.45
2019-06-07T05:29:18.103Z,100400.60
2019-06-07T05:31:49.884Z,100405.79
2019-06-07T05:34:20.563Z,100406.56
2019-06-07T05:37:10.624Z,100409.13
2019-06-07T05:39:23.757Z,100402.76
2019-06-07T05:41:54.462Z,100412.88
2019-06-07T05:44:25.163Z,100411.52
2019-06-07T05:46:56.311Z,100411.88
2019-06-07T05:49:27.376Z,100405.70
2019-06-07T05:51:58.410Z,100401.77
2019-06-07T05:54:29.417Z,100416.73
2019-06-07T05:57:01.265Z,100410.47
2019-06-07T05:59:33.425Z,100412.34
2019-06-07T06:02:21.754Z,100416.84
2019-06-07T06:04:40.264Z,100407.11
2019-06-07T06:07:10.204Z,100411.55
2019-06-07T06:09:43.063Z,100411.77
2019-06-07T06:12:13.267Z,100401.09
2019-06-07T06:14:44.971Z,100413.13
2019-06-07T06:17:16.642Z,100404.78
2019-06-07T06:19:52.477Z,100406.14
2019-06-07T06:22:20.107Z,100402.21
2019-06-07T06:25:29.922Z,100400.85
2019-06-07T06:28:02.861Z,100400.31
2019-06-07T06:29:55.727Z,100398.68
2019-06-07T06:32:42.109Z,100398.47
2019-06-07T06:35:00.289Z,100400.46
2019-06-07T06:37:31.426Z,100404.30
2019-06-07T06:40:02.509Z,100404.61
2019-06-07T06:42:34.541Z,100409.80
2019-06-07T06:45:09.444Z,100414.88
2019-06-07T06:47:40.693Z,100410.64
2019-06-07T06:50:12.999Z,100417.80
2019-06-07T06:52:46.221Z,100416.11
2019-06-07T06:55:16.511Z,100414.77
2019-06-07T06:57:48.343Z,100423.70
2019-06-07T07:00:53.435Z,100416.02
2019-06-07T07:05:54.810Z,100415.50
2019-06-07T07:08:26.026Z,100422.86
2019-06-07T07:10:57.074Z,100424.63
2019-06-07T07:13:28.071Z,100421.74
2019-06-07T07:15:59.131Z,100415.69
2019-06-07T07:18:30.178Z,100419.92
2019-06-07T07:21:00.871Z,100420.17
2019-06-07T07:23:31.569Z,100419.65
2019-06-07T07:26:02.257Z,100420.07
2019-06-07T07:28:33.325Z,100418.30
2019-06-07T07:31:04.708Z,100419.55
2019-06-07T07:36:28.146Z,100424.28
2019-06-07T07:38:40.568Z,100423.86
2019-06-07T07:41:15.534Z,100428.23
2019-06-07T07:43:45.716Z,100423.28
2019-06-07T07:46:31.816Z,100418.73
2019-06-07T07:48:53.007Z,100419.95
2019-06-07T07:51:21.626Z,100416.30
2019-06-07T07:54:04.278Z,100408.92
2019-06-07T07:56:25.029Z,100424.58
2019-06-07T07:59:01.484Z,100430.75
2019-06-07T08:01:28.415Z,100423.33
2019-06-07T08:03:59.437Z,100431.66
2019-06-07T08:06:30.515Z,100430.11
2019-06-07T08:09:01.633Z,100432.52
2019-06-07T08:11:33.375Z,100434.88
2019-06-07T08:14:04.425Z,100428.39
2019-06-07T08:16:35.505Z,100433.66
2019-06-07T08:19:06.528Z,100434.96
2019-06-07T08:21:38.642Z,100431.48
2019-06-07T08:24:09.916Z,100426.82
2019-06-07T08:26:40.956Z,100434.66
2019-06-07T08:29:11.907Z,100427.70
2019-06-07T08:31:42.862Z,100427.44
2019-06-07T08:34:13.920Z,100425.80
2019-06-07T08:36:44.963Z,100425.19
2019-06-07T08:39:15.962Z,100416.94
2019-06-07T08:41:59.319Z,100420.92
2019-06-07T08:44:23.952Z,100422.67
2019-06-07T08:46:56.600Z,100431.39
2019-06-07T08:49:24.451Z,100432.38
2019-06-07T08:52:04.549Z,100433.20
2019-06-07T08:54:27.546Z,100432.58
2019-06-07T08:57:16.872Z,100429.84
2019-06-07T08:59:33.247Z,100431.29
2019-06-07T09:02:20.754Z,100432.94
2019-06-07T09:04:36.279Z,100431.66
2019-06-07T09:07:18.786Z,100429.01
2019-06-07T09:09:39.334Z,100424.28
2019-06-07T09:12:11.407Z,100417.11
2019-06-07T09:14:59.485Z,100417.52
2019-06-07T09:17:15.765Z,100416.51
2019-06-07T09:19:46.470Z,100419.00
2019-06-07T09:22:17.124Z,100422.33
2019-06-07T09:24:47.914Z,100407.41
2019-06-07T09:27:18.593Z,100406.94
2019-06-07T09:29:49.928Z,100404.96
2019-06-07T09:32:20.613Z,100407.84
2019-06-07T09:34:51.307Z,100394.02
2019-06-07T09:38:03.686Z,100392.70
2019-06-07T09:39:59.508Z,100398.09
2019-06-07T09:42:28.858Z,100390.59
2019-06-07T09:45:02.132Z,100397.97
2019-06-07T09:47:33.201Z,100399.45
2019-06-07T09:50:09.065Z,100397.70
2019-06-07T09:52:57.135Z,100389.30
2019-06-07T09:55:23.169Z,100393.14
2019-06-07T09:57:43.381Z,100388.73
2019-06-07T10:02:49.567Z,100379.20
2019-06-07T10:05:20.333Z,100373.92
2019-06-07T10:08:09.452Z,100374.05
2019-06-07T10:12:57.278Z,100374.15
2019-06-07T10:15:29.318Z,100368.42
2019-06-07T10:18:00.755Z,100366.10
2019-06-07T10:20:31.480Z,100362.73
2019-06-07T10:23:03.567Z,100364.73
2019-06-07T10:25:34.701Z,100370.70
2019-06-07T10:28:06.084Z,100373.06
2019-06-07T10:30:36.940Z,100365.72
2019-06-07T10:33:08.582Z,100361.16
2019-06-07T10:35:39.584Z,100352.94
2019-06-07T10:38:10.731Z,100346.57
2019-06-07T10:40:42.587Z,100340.33
2019-06-07T10:43:14.562Z,100338.47
2019-06-07T10:45:45.594Z,100336.57
2019-06-07T10:48:16.582Z,100338.84
2019-06-07T10:50:48.538Z,100333.06
2019-06-07T10:53:19.523Z,100335.13
2019-06-07T10:55:50.220Z,100331.63
2019-06-07T10:58:21.420Z,100320.75
2019-06-07T11:00:52.213Z,100320.45
2019-06-07T11:03:22.886Z,100324.40
2019-06-07T11:05:53.872Z,100315.48
2019-06-07T11:08:24.846Z,100307.05
2019-06-07T11:10:55.552Z,100308.19
2019-06-07T11:13:26.513Z,100302.16
2019-06-07T11:15:57.176Z,100294.16
2019-06-07T11:18:28.000Z,100291.94
2019-06-07T11:21:06.177Z,100293.44
2019-06-07T11:23:39.317Z,100286.82
2019-06-07T11:26:10.416Z,100288.31
2019-06-07T11:28:41.342Z,100284.58
2019-06-07T11:31:13.331Z,100281.87
2019-06-07T11:33:44.698Z,100280.02
2019-06-07T11:36:15.776Z,100278.36
2019-06-07T11:38:46.770Z,100274.23
2019-06-07T11:41:17.846Z,100277.21
2019-06-07T11:43:48.912Z,100273.59
2019-06-07T11:46:19.617Z,100272.52
2019-06-07T11:48:50.283Z,100268.26
2019-06-07T11:51:20.952Z,100268.69
2019-06-07T11:53:51.911Z,100263.39
2019-06-07T11:56:22.865Z,100267.89
2019-06-07T11:58:54.786Z,100260.73
2019-06-07T12:01:25.549Z,100255.13
2019-06-07T12:03:58.671Z,100247.18
2019-06-07T12:06:28.978Z,100248.64
2019-06-07T12:08:59.954Z,100240.20
2019-06-07T12:11:30.656Z,100230.19
2019-06-07T12:14:01.348Z,100239.95
2019-06-07T12:16:32.056Z,100225.57
2019-06-07T12:19:02.735Z,100233.68
2019-06-07T12:21:33.706Z,100226.93
2019-06-07T12:24:04.762Z,100223.68
2019-06-07T12:26:35.481Z,100220.42
2019-06-07T12:29:06.729Z,100224.31
2019-06-07T12:31:37.415Z,100227.52
2019-06-07T12:34:08.372Z,100217.62
2019-06-07T12:36:40.437Z,100213.01
2019-06-07T12:39:11.874Z,100219.17
2019-06-07T12:41:42.870Z,100213.38
2019-06-07T12:44:14.557Z,100210.69
2019-06-07T12:46:45.366Z,100209.19
2019-06-07T12:49:17.046Z,100203.95
2019-06-07T12:51:47.908Z,100203.66
2019-06-07T12:54:19.647Z,100197.27
2019-06-07T12:56:52.401Z,100194.53
2019-06-07T12:59:24.320Z,100195.61
2019-06-07T13:01:55.107Z,100194.23
2019-06-07T13:04:27.661Z,100185.86
2019-06-07T13:06:58.428Z,100180.63
2019-06-07T13:09:29.344Z,100173.27
2019-06-07T13:12:00.020Z,100169.88
2019-06-07T13:14:30.930Z,100175.09
2019-06-07T13:17:01.904Z,100159.72
2019-06-07T13:19:32.837Z,100161.11
2019-06-07T13:22:03.539Z,100162.44
2019-06-07T13:24:34.217Z,100157.76
2019-06-07T13:27:05.184Z,100158.34
2019-06-07T13:29:36.114Z,100156.06
2019-06-07T13:32:06.769Z,100154.91
2019-06-07T13:34:37.753Z,100149.97
2019-06-07T13:37:08.766Z,100147.71
2019-06-07T13:39:39.716Z,100137.20
2019-06-07T13:42:10.386Z,100144.23
2019-06-07T13:44:41.361Z,100144.17
2019-06-07T13:47:13.053Z,100143.98
2019-06-07T13:49:44.069Z,100131.13
2019-06-07T13:52:14.755Z,100136.95
2019-06-07T13:54:45.434Z,100124.06
2019-06-07T13:57:18.156Z,100127.03
2019-06-07T13:59:49.333Z,100129.90
2019-06-07T14:02:21.068Z,100122.86
2019-06-07T14:04:52.369Z,100121.59
2019-06-07T14:07:23.725Z,100119.24
2019-06-07T14:09:56.175Z,100115.73
2019-06-07T14:12:27.838Z,100105.91
2019-06-07T14:14:58.888Z,100100.27
2019-06-07T14:17:30.928Z,100093.45
2019-06-07T14:20:02.188Z,100090.14
2019-06-07T14:22:33.811Z,100090.58
2019-06-07T14:25:06.760Z,100089.81
2019-06-07T14:27:38.369Z,100085.63
2019-06-07T14:30:11.481Z,100083.25
2019-06-07T14:32:42.220Z,100081.95
2019-06-07T14:35:16.181Z,100076.66
2019-06-07T14:37:47.259Z,100071.16
2019-06-07T14:40:18.998Z,100068.48
2019-06-07T14:42:49.998Z,100061.56
2019-06-07T14:45:21.410Z,100068.63
2019-06-07T14:47:53.466Z,100067.27
2019-06-07T14:50:24.538Z,100066.50
2019-06-07T14:52:55.365Z,100073.05
2019-06-07T14:55:26.971Z,100069.21
2019-06-07T14:57:57.854Z,100067.36
2019-06-07T15:00:44.272Z,100066.82
2019-06-07T15:03:14.951Z,100063.32
2019-06-07T15:05:46.015Z,100059.81
2019-06-07T15:08:17.665Z,100054.39
2019-06-07T15:10:48.708Z,100058.94
2019-06-07T15:13:19.809Z,100055.72
2019-06-07T15:15:51.046Z,100053.85
2019-06-07T15:18:21.987Z,100044.59
2019-06-07T15:20:52.955Z,100044.31
2019-06-07T15:23:23.994Z,100042.66
2019-06-07T15:25:55.616Z,100038.53
2019-06-07T15:28:27.669Z,100038.20
2019-06-07T15:30:59.981Z,100032.45
2019-06-07T15:33:31.862Z,100029.80
2019-06-07T15:36:02.922Z,100026.33
2019-06-07T15:38:34.793Z,100027.37
2019-06-07T15:41:05.490Z,100020.36
2019-06-07T15:43:37.434Z,100023.47
2019-06-07T15:46:08.256Z,100030.58
2019-06-07T15:48:40.172Z,100024.77
2019-06-07T15:51:11.231Z,100029.50
2019-06-07T15:53:44.538Z,100025.91
2019-06-07T15:56:14.548Z,100022.90
2019-06-07T15:58:45.904Z,100028.39
2019-06-07T16:01:16.838Z,100025.38
2019-06-07T16:03:47.517Z,100030.77
2019-06-07T16:06:19.674Z,100033.56
2019-06-07T16:08:52.064Z,100038.73
2019-06-07T16:11:23.046Z,100034.13
2019-06-07T16:13:53.718Z,100033.53
2019-06-07T16:16:25.291Z,100036.45
2019-06-07T16:18:57.982Z,100030.17
2019-06-07T16:21:28.674Z,100038.39
2019-06-07T16:23:59.596Z,100032.86
2019-06-07T16:26:31.256Z,100033.72
2019-06-07T16:29:02.001Z,100033.44
2019-06-07T16:31:32.824Z,100026.90
2019-06-07T16:34:03.545Z,100022.55
2019-06-07T16:36:34.230Z,100015.80
2019-06-07T16:39:08.152Z,100014.09
2019-06-07T16:41:38.813Z,100007.48
2019-06-07T16:44:09.861Z,100013.55
2019-06-07T16:46:40.739Z,100012.44
2019-06-07T16:49:11.809Z,100010.22
2019-06-07T16:51:43.287Z,100010.53
2019-06-07T16:54:14.302Z,100017.57
2019-06-07T16:56:48.028Z,100016.75
2019-06-07T16:59:17.389Z,100014.84
2019-06-07T17:01:49.558Z,100016.92
2019-06-07T17:04:20.746Z,100018.78
2019-06-07T17:06:51.562Z,100020.15
2019-06-07T17:09:22.432Z,100018.53
2019-06-07T17:11:53.150Z,100016.09
2019-06-07T17:14:24.092Z,100013.08
2019-06-07T17:16:55.016Z,100009.28
2019-06-07T17:19:26.665Z,100008.16
2019-06-07T17:21:57.428Z,100009.52
2019-06-07T17:24:29.160Z,100012.20
2019-06-07T17:26:59.844Z,100012.50
2019-06-07T17:29:30.539Z,100009.69
2019-06-07T17:32:01.252Z,100004.48
2019-06-07T17:34:32.238Z,100000.48
2019-06-07T17:37:03.283Z,100006.76
2019-06-07T17:39:33.968Z,100005.11
2019-06-07T17:42:04.930Z,100004.44
2019-06-07T17:44:35.875Z,100004.81
2019-06-07T17:47:06.807Z,100000.06
2019-06-07T17:49:37.812Z,99993.50
2019-06-07T17:52:08.521Z,99994.32
2019-06-07T17:54:39.557Z,99993.45
2019-06-07T17:57:10.406Z,99991.55
2019-06-07T17:59:42.339Z,99989.64
2019-06-07T18:02:15.554Z,99988.23
2019-06-07T18:04:47.177Z,99988.19
2019-06-07T18:07:21.006Z,99986.48
2019-06-07T18:09:52.336Z,99978.50
2019-06-07T18:12:22.999Z,99977.95
2019-06-07T18:14:55.105Z,99973.62
2019-06-07T18:17:33.982Z,99930.66
2019-06-07T18:19:58.592Z,99973.91
2019-06-07T18:22:29.507Z,99984.16
2019-06-07T18:25:00.200Z,99977.66
2019-06-07T18:27:31.141Z,99979.68
2019-06-07T18:30:10.805Z,99976.06
2019-06-07T18:32:36.164Z,99974.80
2019-06-07T18:35:08.123Z,99972.08
2019-06-07T18:37:39.086Z,99981.22
2019-06-07T18:40:10.547Z,99979.74
2019-06-07T18:42:41.492Z,99970.22
2019-06-07T18:45:12.805Z,99964.40
2019-06-07T18:47:43.799Z,99960.78
2019-06-07T18:50:15.171Z,99955.80
2019-06-07T18:52:46.881Z,99960.17
2019-06-07T18:55:18.416Z,99960.69
2019-06-07T18:57:50.176Z,99958.13
2019-06-07T19:00:23.382Z,99955.08
2019-06-07T19:02:54.133Z,99948.73
2019-06-07T19:05:24.988Z,99954.66
2019-06-07T19:07:56.931Z,99956.00
2019-06-07T19:10:27.806Z,99958.80
2019-06-07T19:13:00.435Z,99956.09
2019-06-07T19:15:33.307Z,99957.56
2019-06-07T19:18:04.402Z,99952.30
2019-06-07T19:20:35.310Z,99960.34
2019-06-07T19:23:07.036Z,99959.48
2019-06-07T19:25:39.732Z,99961.72
2019-06-07T19:28:10.959Z,99963.82
2019-06-07T19:30:42.170Z,99966.75
2019-06-07T19:33:14.409Z,99961.68
2019-06-07T19:35:45.542Z,99962.72
2019-06-07T19:38:17.176Z,99961.56
2019-06-07T19:40:48.297Z,99960.92
2019-06-07T19:43:19.293Z,99964.94
2019-06-07T19:45:50.676Z,99968.88
2019-06-07T19:48:22.860Z,99965.52
2019-06-07T19:50:54.842Z,99965.42
2019-06-07T19:56:10.069Z,99969.77
2019-06-07T19:58:42.083Z,99978.61
2019-06-07T20:01:13.564Z,99930.56
2019-06-07T20:03:44.744Z,99974.14
2019-06-07T20:06:15.421Z,99980.46
2019-06-07T20:08:46.563Z,99981.02
2019-06-07T20:11:17.519Z,99983.44
2019-06-07T20:13:48.177Z,99966.80
2019-06-07T20:16:19.646Z,99962.92
2019-06-07T20:18:51.735Z,99965.93
2019-06-07T20:21:22.790Z,99962.16
2019-06-07T20:23:53.622Z,99952.73
2019-06-07T20:26:24.928Z,99951.96
2019-06-07T20:28:57.135Z,99952.53
2019-06-07T20:31:27.916Z,99943.92
2019-06-07T20:33:58.793Z,99950.06
2019-06-07T20:36:30.058Z,99959.70
2019-06-07T20:39:02.145Z,99955.83
2019-06-07T20:41:34.573Z,99959.33
2019-06-07T20:44:05.968Z,99961.30
2019-06-07T20:46:36.913Z,99963.77
2019-06-07T20:49:08.402Z,99966.52
2019-06-07T20:51:39.811Z,99975.94
2019-06-07T20:54:11.739Z,99977.86
2019-06-07T20:56:43.063Z,99967.61
2019-06-07T20:59:14.131Z,99974.66
2019-06-07T21:01:45.363Z,99964.79
2019-06-07T21:04:16.296Z,99966.52
2019-06-07T21:06:47.442Z,99961.06
2019-06-07T21:09:18.434Z,99957.75
2019-06-07T21:11:50.004Z,99954.66
2019-06-07T21:14:21.448Z,99954.03
2019-06-07T21:16:55.664Z,99968.37
2019-06-07T21:19:31.912Z,99951.58
2019-06-07T21:22:06.658Z,99952.52
2019-06-07T21:24:42.217Z,99954.84
2019-06-07T21:27:14.957Z,99959.03
2019-06-07T21:29:46.463Z,99951.80
2019-06-07T21:32:17.367Z,99959.66
2019-06-07T21:34:48.219Z,99959.02
2019-06-07T21:37:19.467Z,99965.34
2019-06-07T21:39:50.825Z,99962.56
2019-06-07T21:42:22.970Z,99958.20
2019-06-07T21:44:53.862Z,99957.63
2019-06-07T21:47:25.196Z,99957.78
2019-06-07T21:49:56.578Z,99956.46
2019-06-07T21:52:27.697Z,99951.00
2019-06-07T21:54:59.172Z,99946.98
2019-06-07T21:57:30.229Z,99949.73
2019-06-07T22:00:01.134Z,99955.98
2019-06-07T22:02:32.287Z,99963.09
2019-06-07T22:05:03.504Z,99968.84
2019-06-07T22:07:34.319Z,99965.89
2019-06-07T22:10:08.072Z,99966.12
2019-06-07T22:12:39.112Z,99969.05
2019-06-07T22:15:29.149Z,99973.30
2019-06-07T22:17:43.144Z,99979.03
2019-06-07T22:20:14.806Z,99983.97
2019-06-07T22:22:45.762Z,99993.66
2019-06-07T22:25:16.666Z,99992.13
2019-06-07T22:27:47.360Z,99991.84
2019-06-07T22:30:18.780Z,99991.05
2019-06-07T22:32:49.792Z,99994.30
2019-06-07T22:35:20.476Z,100001.34
2019-06-07T22:37:51.464Z,100005.73
2019-06-07T22:40:22.157Z,100002.83
2019-06-07T22:42:52.830Z,100001.56
2019-06-07T22:45:23.564Z,99994.33
2019-06-07T22:47:54.485Z,99989.50
2019-06-07T22:50:25.592Z,99996.59
2019-06-07T22:52:56.579Z,99985.22
2019-06-07T22:55:27.520Z,99987.77
2019-06-07T22:57:59.619Z,99986.20
2019-06-07T23:00:33.035Z,99974.26
2019-06-07T23:03:04.001Z,99974.72
2019-06-07T23:05:34.657Z,99964.95
2019-06-07T23:08:05.776Z,99974.77
2019-06-07T23:10:36.701Z,99975.36
2019-06-07T23:13:07.395Z,99982.59
2019-06-07T23:15:38.336Z,99991.00
2019-06-07T23:18:09.412Z,99991.31
2019-06-07T23:20:40.419Z,100000.52
2019-06-07T23:23:12.263Z,100011.13
2019-06-07T23:25:43.193Z,100008.36
2019-06-07T23:28:14.388Z,100019.85
2019-06-07T23:30:45.164Z,100030.36
2019-06-07T23:33:16.812Z,100037.72
2019-06-07T23:35:47.783Z,100052.13
2019-06-07T23:38:19.196Z,100066.84
2019-06-07T23:40:49.922Z,100069.22
2019-06-07T23:43:21.592Z,100074.99
2019-06-07T23:45:52.333Z,100076.80
2019-06-07T23:48:23.362Z,100072.68
2019-06-07T23:50:54.280Z,100075.52
2019-06-07T23:53:26.239Z,100070.09
2019-06-07T23:55:57.177Z,100084.67
2019-06-07T23:58:28.120Z,100111.87
